Time;durP1;ratioP1;P1;durP2;ratioP2;P2;SDS_P1;SDS_P2;PMS_P1;PMS_P2;Temp;Humidity;BMP_temperature;BMP_pressure;BME280_temperature;BME280_humidity;BME280_pressure;Samples;Min_cycle;Max_cycle;Signal;HPM_P1;HPM_P2
2023/05/24 00:00:21;;;;;;;9.25;3.95;;;;;;;11.01;88.25;101027.28;5028444;28;20092;-82
2023/05/24 00:02:47;;;;;;;9.02;4.03;;;;;;;11.00;88.32;101023.75;4996697;28;20077;-80
2023/05/24 00:05:15;;;;;;;12.68;4.18;;;;;;;10.89;90.00;101020.44;5008546;28;20332;-83
2023/05/24 00:07:42;;;;;;;9.80;3.95;;;;;;;10.86;91.32;101027.53;5042035;28;20128;-82
2023/05/24 00:10:09;;;;;;;7.00;3.95;;;;;;;10.83;91.44;101030.22;5040558;28;20034;-82
2023/05/24 00:12:36;;;;;;;10.20;3.40;;;;;;;10.85;90.29;101031.09;5039073;28;20095;-82
2023/05/24 00:15:03;;;;;;;11.23;3.67;;;;;;;10.78;90.56;101030.31;5009490;28;20510;-81
2023/05/24 00:17:30;;;;;;;9.70;3.80;;;;;;;10.83;90.95;101033.72;5033021;28;20040;-82
2023/05/24 00:19:57;;;;;;;7.38;3.47;;;;;;;10.85;90.66;101031.09;5019924;28;20041;-83
2023/05/24 00:22:23;;;;;;;13.43;4.75;;;;;;;10.75;89.45;101032.09;5029128;28;20124;-82
2023/05/24 00:24:50;;;;;;;10.02;3.47;;;;;;;10.74;91.60;101028.59;5008466;28;20068;-83
2023/05/24 00:27:17;;;;;;;7.03;3.10;;;;;;;10.71;92.68;101028.66;5005090;28;20106;-81
2023/05/24 00:29:44;;;;;;;8.65;4.18;;;;;;;10.73;91.33;101024.19;5037062;28;20040;-81
2023/05/24 00:32:11;;;;;;;7.15;3.53;;;;;;;10.56;92.57;101023.59;5008105;28;20040;-82
2023/05/24 00:34:37;;;;;;;8.45;4.13;;;;;;;10.60;92.57;101027.94;5011425;28;20075;-82
2023/05/24 00:37:04;;;;;;;8.20;3.40;;;;;;;10.43;93.90;101036.09;5042733;28;20052;-82
2023/05/24 00:39:31;;;;;;;10.00;3.20;;;;;;;10.43;94.52;101022.91;5031426;28;20478;-82
2023/05/24 00:41:57;;;;;;;9.52;4.03;;;;;;;10.51;93.03;101018.38;5007297;28;20430;-81
2023/05/24 00:44:25;;;;;;;9.40;3.65;;;;;;;10.45;93.10;101023.75;5031876;28;21046;-81
2023/05/24 00:46:51;;;;;;;6.47;3.28;;;;;;;10.39;93.91;101023.81;5012867;28;20497;-81
2023/05/24 00:49:18;;;;;;;9.70;4.20;;;;;;;10.27;94.33;101029.28;5042644;28;20426;-81
2023/05/24 00:51:45;;;;;;;8.68;2.92;;;;;;;10.27;94.75;101024.00;5028004;28;20421;-83
2023/05/24 00:54:13;;;;;;;7.38;3.30;;;;;;;10.15;95.24;101022.34;5016144;28;20037;-82
2023/05/24 00:56:41;;;;;;;6.57;3.67;;;;;;;10.20;94.41;101023.16;5029328;28;20048;-82
2023/05/24 00:59:08;;;;;;;7.25;3.67;;;;;;;9.99;95.71;101023.44;5044578;28;20041;-82
2023/05/24 01:01:36;;;;;;;8.05;3.03;;;;;;;9.84;97.16;101024.50;5021598;28;20045;-82
2023/05/24 01:04:03;;;;;;;8.15;3.00;;;;;;;9.87;96.50;101020.06;5010822;28;20128;-81
2023/05/24 01:06:31;;;;;;;6.78;3.13;;;;;;;9.64;97.91;101024.72;5015563;28;20493;-82
2023/05/24 01:09:09;;;;;;;9.80;4.22;;;;;;;9.57;99.46;101023.91;5014710;28;20492;-82
2023/05/24 01:12:11;;;;;;;8.05;3.35;;;;;;;9.56;97.33;101027.44;5050424;28;20072;-82
2023/05/24 01:14:58;;;;;;;12.15;4.18;;;;;;;9.56;97.30;101027.44;5056723;28;20045;-84
2023/05/24 01:17:47;;;;;;;12.35;3.72;;;;;;;9.35;99.75;101026.78;5056926;28;20048;-82
2023/05/24 01:20:16;;;;;;;8.95;3.00;;;;;;;9.29;99.82;101022.44;5021363;28;20063;-81
2023/05/24 01:23:04;;;;;;;9.93;2.95;;;;;;;9.17;100.00;101033.97;5040803;28;20040;-82
2023/05/24 01:25:47;;;;;;;6.78;3.47;;;;;;;9.20;100.00;101041.84;5025195;28;20051;-82
2023/05/24 01:28:16;;;;;;;8.47;3.60;;;;;;;9.10;100.00;101041.94;5048485;28;20235;-81
2023/05/24 01:30:43;;;;;;;8.50;3.43;;;;;;;9.14;100.00;101044.53;5029612;28;20502;-81
2023/05/24 01:33:10;;;;;;;8.10;3.50;;;;;;;9.05;100.00;101043.72;5048995;28;20410;-81
2023/05/24 01:35:40;;;;;;;9.03;3.73;;;;;;;9.09;100.00;101038.44;5047606;28;20041;-81
2023/05/24 01:38:07;;;;;;;8.10;3.40;;;;;;;8.97;100.00;101039.41;5025631;28;20433;-80
2023/05/24 01:40:34;;;;;;;9.70;3.27;;;;;;;9.00;100.00;101044.66;5011520;28;20052;-80
2023/05/24 01:43:17;;;;;;;8.87;3.60;;;;;;;9.10;100.00;101049.84;5030767;28;20418;-80
2023/05/24 01:46:08;;;;;;;9.80;3.67;;;;;;;9.09;100.00;101035.81;5042166;28;20120;-83
2023/05/24 01:48:53;;;;;;;13.40;3.77;;;;;;;9.07;100.00;101036.69;5033989;28;20473;-81
2023/05/24 01:51:22;;;;;;;9.80;3.30;;;;;;;8.98;100.00;101041.13;5039834;28;20288;-82
2023/05/24 01:53:50;;;;;;;8.70;3.37;;;;;;;9.00;100.00;101039.41;5048012;28;20072;-82
2023/05/24 01:56:19;;;;;;;6.60;3.43;;;;;;;9.01;100.00;101041.13;5011227;28;20045;-83
2023/05/24 01:58:46;;;;;;;7.90;2.93;;;;;;;8.97;100.00;101044.66;5015184;28;20041;-82
2023/05/24 02:01:13;;;;;;;11.43;3.10;;;;;;;8.97;100.00;101047.31;5023938;28;20374;-82
2023/05/24 02:03:40;;;;;;;6.60;2.97;;;;;;;8.98;100.00;101051.69;4997981;28;20050;-81
2023/05/24 02:06:07;;;;;;;12.37;3.43;;;;;;;8.92;100.00;101045.59;5011079;28;20075;-82
2023/05/24 02:08:33;;;;;;;10.50;3.17;;;;;;;8.93;100.00;101042.97;5017550;28;20033;-81
2023/05/24 02:11:01;;;;;;;5.47;3.10;;;;;;;8.93;100.00;101047.34;5021427;28;20455;-82
2023/05/24 02:13:28;;;;;;;6.17;2.90;;;;;;;8.80;100.00;101046.56;5029584;28;20052;-83
2023/05/24 02:15:55;;;;;;;6.10;2.63;;;;;;;8.90;100.00;101042.97;5009836;28;20045;-83
2023/05/24 02:18:21;;;;;;;7.60;4.50;;;;;;;8.82;100.00;101047.41;5045646;28;20128;-83
2023/05/24 02:20:48;;;;;;;9.23;3.40;;;;;;;8.64;100.00;101051.03;5006298;28;20068;-81
2023/05/24 02:23:15;;;;;;;10.53;3.53;;;;;;;8.69;100.00;101045.75;5048558;28;20079;-82
2023/05/24 02:25:41;;;;;;;10.70;3.27;;;;;;;8.58;100.00;101047.59;5026675;28;20064;-83
2023/05/24 02:28:08;;;;;;;7.97;3.00;;;;;;;8.43;100.00;101045.94;5047814;28;20691;-81
2023/05/24 02:30:35;;;;;;;7.63;3.87;;;;;;;8.55;100.00;101050.22;5042079;28;20382;-82
2023/05/24 02:33:02;;;;;;;8.07;3.20;;;;;;;8.41;100.00;101053.84;5042678;28;20041;-82
2023/05/24 02:35:29;;;;;;;7.53;3.23;;;;;;;8.42;100.00;101050.31;5040113;28;20041;-82
2023/05/24 02:37:57;;;;;;;7.83;3.17;;;;;;;8.29;100.00;101048.59;5015587;28;20047;-82
2023/05/24 02:40:24;;;;;;;12.17;4.10;;;;;;;8.22;100.00;101053.88;5005530;28;20391;-82
2023/05/24 02:42:51;;;;;;;7.90;3.07;;;;;;;8.29;100.00;101050.34;5012291;28;20617;-83
2023/05/24 02:45:18;;;;;;;14.27;3.40;;;;;;;8.17;100.00;101044.25;5022956;28;20052;-82
2023/05/24 02:47:45;;;;;;;8.43;2.93;;;;;;;8.18;100.00;101050.41;5011948;28;20056;-83
2023/05/24 02:50:12;;;;;;;8.67;2.67;;;;;;;8.19;100.00;101042.50;5007977;28;20041;-82
2023/05/24 02:52:39;;;;;;;6.00;3.40;;;;;;;8.23;100.00;101048.59;5036665;28;20123;-83
2023/05/24 02:55:06;;;;;;;7.77;3.17;;;;;;;8.35;100.00;101040.69;5036717;28;20412;-82
2023/05/24 02:57:33;;;;;;;8.73;3.50;;;;;;;8.26;100.00;101042.47;5025900;28;20125;-83
2023/05/24 02:59:59;;;;;;;10.17;3.73;;;;;;;8.34;100.00;101051.22;5027657;28;20036;-81
2023/05/24 03:02:28;;;;;;;10.17;3.13;;;;;;;8.36;100.00;101045.06;5027316;28;20047;-82
2023/05/24 03:04:54;;;;;;;19.87;4.60;;;;;;;8.45;100.00;101052.06;4999834;28;20064;-82
2023/05/24 03:07:21;;;;;;;5.07;2.87;;;;;;;8.43;100.00;101049.44;5022732;28;20052;-82
2023/05/24 03:09:48;;;;;;;6.90;3.07;;;;;;;8.47;100.00;101047.63;5008095;28;20050;-81
2023/05/24 03:12:15;;;;;;;7.10;3.20;;;;;;;8.51;100.00;101057.28;5024867;28;20425;-81
2023/05/24 03:14:41;;;;;;;6.97;3.07;;;;;;;8.59;100.00;101057.25;5022054;28;20039;-83
2023/05/24 03:17:08;;;;;;;9.90;2.90;;;;;;;8.63;100.00;101057.19;5030179;28;20072;-83
2023/05/24 03:19:36;;;;;;;11.60;4.13;;;;;;;8.64;100.00;101053.69;5014477;28;20042;-82
2023/05/24 03:22:02;;;;;;;7.57;2.93;;;;;;;8.70;100.00;101063.31;5020998;28;20151;-82
2023/05/24 03:24:30;;;;;;;5.60;2.63;;;;;;;8.76;100.00;101065.03;5029499;28;20044;-83
2023/05/24 03:26:57;;;;;;;9.87;4.30;;;;;;;8.80;100.00;101066.75;5010083;28;20037;-84
2023/05/24 03:29:23;;;;;;;8.07;3.90;;;;;;;8.84;100.00;101068.50;5003141;28;20136;-83
2023/05/24 03:31:50;;;;;;;6.63;2.43;;;;;;;8.90;100.00;101068.44;5011911;28;20041;-82
2023/05/24 03:34:17;;;;;;;5.57;2.83;;;;;;;8.99;100.00;101063.09;5013107;28;20501;-83
2023/05/24 03:36:43;;;;;;;8.43;3.43;;;;;;;9.08;100.00;101065.69;5039775;28;20136;-83
2023/05/24 03:39:10;;;;;;;8.77;3.30;;;;;;;9.15;100.00;101069.13;5035679;28;20441;-82
2023/05/24 03:41:37;;;;;;;6.73;2.73;;;;;;;9.15;100.00;101070.00;5014513;28;20513;-83
2023/05/24 03:44:04;;;;;;;9.40;3.33;;;;;;;9.17;100.00;101067.38;5010695;28;20041;-84
2023/05/24 03:46:31;;;;;;;6.20;2.80;;;;;;;9.27;100.00;101076.94;5020044;28;20124;-83
2023/05/24 03:48:57;;;;;;;10.77;3.43;;;;;;;9.31;100.00;101070.75;5044371;28;20038;-83
2023/05/24 03:51:28;;;;;;;9.93;3.43;;;;;;;9.39;100.00;101068.91;5013577;28;20047;-83
2023/05/24 03:53:56;;;;;;;9.43;3.78;;;;;;;9.47;100.00;101069.72;5032930;28;20397;-83
2023/05/24 03:56:23;;;;;;;5.73;2.40;;;;;;;9.51;100.00;101065.31;5016538;28;20041;-84
2023/05/24 03:58:51;;;;;;;10.63;3.17;;;;;;;9.66;100.00;101077.44;5029301;28;20045;-82
2023/05/24 04:01:21;;;;;;;6.57;2.80;;;;;;;9.68;100.00;101063.38;5028558;28;20038;-83
2023/05/24 04:04:00;;;;;;;8.63;3.13;;;;;;;9.73;100.00;101064.19;5031297;28;20136;-83
2023/05/24 04:06:28;;;;;;;7.72;3.53;;;;;;;9.73;100.00;101061.53;5052166;28;20045;-83
2023/05/24 04:08:56;;;;;;;10.70;3.63;;;;;;;9.86;100.00;101071.09;5041189;28;20117;-83
2023/05/24 04:11:26;;;;;;;6.50;2.88;;;;;;;9.92;100.00;101067.53;5061219;28;20510;-82
2023/05/24 04:13:54;;;;;;;6.47;3.05;;;;;;;9.95;100.00;101071.88;5045011;28;20038;-82
2023/05/24 04:16:26;;;;;;;7.20;2.45;;;;;;;9.94;100.00;101073.66;5048351;28;20042;-82
2023/05/24 04:18:56;;;;;;;8.82;3.22;;;;;;;10.03;100.00;101077.94;5029209;28;20099;-84
2023/05/24 04:21:23;;;;;;;6.88;2.75;;;;;;;10.08;100.00;101082.25;5047534;28;20037;-82
2023/05/24 04:23:49;;;;;;;7.57;2.95;;;;;;;10.10;100.00;101083.16;5054522;28;20031;-83
2023/05/24 04:26:17;;;;;;;4.82;2.45;;;;;;;10.19;100.00;101078.66;5020395;28;20080;-83
2023/05/24 04:28:45;;;;;;;6.22;2.78;;;;;;;10.23;100.00;101083.00;5058428;28;20069;-83
2023/05/24 04:31:12;;;;;;;6.32;3.15;;;;;;;10.23;100.00;101093.56;5052192;28;20036;-84
2023/05/24 04:33:39;;;;;;;14.23;2.95;;;;;;;10.30;100.00;101095.25;5059956;28;20041;-83
2023/05/24 04:36:07;;;;;;;7.88;3.45;;;;;;;10.27;100.00;101096.19;5049448;28;20117;-82
2023/05/24 04:38:34;;;;;;;8.60;3.20;;;;;;;10.26;100.00;101093.56;5060419;28;20604;-83
2023/05/24 04:41:01;;;;;;;7.22;3.10;;;;;;;10.27;100.00;101098.81;5033714;28;20114;-82
2023/05/24 04:43:28;;;;;;;7.82;3.42;;;;;;;10.30;100.00;101097.91;5049408;28;20523;-83
2023/05/24 04:45:55;;;;;;;12.93;3.72;;;;;;;10.34;95.72;101107.50;5023836;28;20114;-83
2023/05/24 04:48:23;;;;;;;9.32;2.80;;;;;;;10.31;98.11;101112.84;5052352;28;20075;-83
2023/05/24 04:50:54;;;;;;;7.07;2.80;;;;;;;10.34;97.83;101118.06;5053868;28;20472;-83
2023/05/24 04:53:22;;;;;;;9.05;3.08;;;;;;;10.30;99.45;101116.38;5039920;28;20067;-84
2023/05/24 04:55:49;;;;;;;7.70;2.88;;;;;;;10.38;100.00;101119.81;5049370;28;20797;-82
2023/05/24 04:58:16;;;;;;;6.88;3.42;;;;;;;10.51;100.00;101123.16;5036115;28;20060;-83
2023/05/24 05:00:43;;;;;;;11.98;3.78;;;;;;;10.64;99.00;101128.25;5042856;28;20689;-83
2023/05/24 05:03:10;;;;;;;12.25;3.22;;;;;;;10.77;99.21;101129.00;5025971;28;20048;-82
2023/05/24 05:05:37;;;;;;;7.70;3.97;;;;;;;10.82;94.14;101134.19;5020888;28;20048;-83
2023/05/24 05:08:05;;;;;;;14.07;4.00;;;;;;;10.96;96.27;101130.47;5058504;28;20081;-84
2023/05/24 05:10:32;;;;;;;9.88;3.88;;;;;;;11.03;94.84;101133.91;5053085;28;20517;-82
2023/05/24 05:12:59;;;;;;;9.10;3.40;;;;;;;11.13;97.39;101124.94;5009606;28;20041;-82
2023/05/24 05:15:25;;;;;;;8.50;3.00;;;;;;;11.09;94.33;101132.91;5020648;28;20132;-84
2023/05/24 05:17:52;;;;;;;6.05;2.65;;;;;;;11.20;90.47;101129.22;5015044;28;20045;-83
2023/05/24 05:20:19;;;;;;;12.02;3.85;;;;;;;11.30;94.75;101129.09;5024122;28;20107;-84
2023/05/24 05:22:46;;;;;;;7.65;3.67;;;;;;;11.40;94.50;101139.47;5023518;28;20069;-84
2023/05/24 05:25:13;;;;;;;7.75;3.42;;;;;;;11.53;90.76;101125.16;5046661;28;20053;-82
2023/05/24 05:27:40;;;;;;;8.25;3.40;;;;;;;11.63;91.63;101135.59;5038740;28;20513;-84
2023/05/24 05:30:07;;;;;;;7.07;3.00;;;;;;;11.69;91.08;101138.13;5042511;28;20068;-83
2023/05/24 05:32:36;;;;;;;11.68;3.92;;;;;;;11.54;87.07;101142.78;5029873;28;20405;-84
2023/05/24 05:35:04;;;;;;;8.15;3.55;;;;;;;11.69;87.56;101139.00;5027095;28;20113;-82
2023/05/24 05:37:30;;;;;;;10.38;2.90;;;;;;;11.95;88.23;101141.22;5042267;28;20577;-83
2023/05/24 05:39:57;;;;;;;8.68;3.67;;;;;;;13.15;79.90;101136.94;5041359;28;20063;-83
2023/05/24 05:42:24;;;;;;;8.60;3.10;;;;;;;13.74;74.79;101143.47;5034253;28;20068;-84
2023/05/24 05:44:51;;;;;;;9.50;3.67;;;;;;;13.60;73.79;101144.72;5037611;28;20533;-83
2023/05/24 05:47:18;;;;;;;11.93;4.03;;;;;;;13.27;74.47;101144.63;5050100;28;20052;-83
2023/05/24 05:49:44;;;;;;;9.90;3.35;;;;;;;13.15;74.27;101147.53;5023828;28;20045;-82
2023/05/24 05:52:11;;;;;;;11.88;3.50;;;;;;;13.08;76.11;101149.47;5036030;28;20095;-82
2023/05/24 05:54:38;;;;;;;9.68;4.40;;;;;;;13.14;72.41;101151.13;5034453;28;20595;-82
2023/05/24 05:57:06;;;;;;;9.52;2.83;;;;;;;13.68;72.68;101143.59;5058099;28;20136;-83
2023/05/24 05:59:34;;;;;;;8.60;3.55;;;;;;;14.48;66.56;101142.34;5023628;28;20050;-83
2023/05/24 06:02:02;;;;;;;8.63;3.25;;;;;;;14.59;63.95;101145.56;5024574;28;20491;-81
2023/05/24 06:04:29;;;;;;;5.65;3.00;;;;;;;14.48;65.38;101150.34;5050612;28;20045;-82
2023/05/24 06:06:56;;;;;;;42.75;7.25;;;;;;;15.07;65.02;101145.00;5057492;28;20045;-81
2023/05/24 06:09:23;;;;;;;15.77;3.75;;;;;;;15.20;62.79;101153.47;5030955;28;20041;-79
2023/05/24 06:11:49;;;;;;;8.02;3.60;;;;;;;15.06;62.56;101153.91;5037110;28;20040;-82
2023/05/24 06:14:17;;;;;;;17.02;3.92;;;;;;;15.48;64.47;101145.47;5046377;28;20043;-82
2023/05/24 06:16:44;;;;;;;7.63;3.63;;;;;;;15.71;61.68;101156.25;5026856;28;20044;-83
2023/05/24 06:19:12;;;;;;;8.25;2.80;;;;;;;15.57;59.06;101157.63;5050403;28;20303;-83
2023/05/24 06:21:45;;;;;;;10.68;3.00;;;;;;;15.61;61.77;101160.13;5023061;28;20383;-82
2023/05/24 06:24:13;;;;;;;8.50;3.20;;;;;;;15.93;60.96;101155.53;5020298;28;20033;-82
2023/05/24 06:26:40;;;;;;;6.22;3.47;;;;;;;16.02;58.64;101166.72;5033703;28;20048;-83
2023/05/24 06:29:08;;;;;;;8.45;3.92;;;;;;;16.11;57.77;101168.19;5044786;28;20037;-82
2023/05/24 06:31:35;;;;;;;10.98;3.33;;;;;;;15.94;57.01;101165.25;5020269;28;20145;-82
2023/05/24 06:34:02;;;;;;;9.00;2.53;;;;;;;15.89;57.25;101173.44;5037846;28;20056;-82
2023/05/24 06:36:34;;;;;;;12.57;3.15;;;;;;;15.72;56.25;101174.00;5021012;28;20529;-82
2023/05/24 06:39:02;;;;;;;8.60;3.15;;;;;;;15.50;58.33;101178.25;5056468;28;20044;-82
2023/05/24 06:41:29;;;;;;;7.28;2.95;;;;;;;15.74;58.13;101172.16;5063583;28;20487;-82
2023/05/24 06:43:56;;;;;;;10.70;3.00;;;;;;;15.98;57.87;101183.75;5055135;28;20039;-82
2023/05/24 06:46:23;;;;;;;8.38;2.78;;;;;;;16.30;59.40;101184.41;5036166;28;20044;-83
2023/05/24 06:48:49;;;;;;;8.63;2.80;;;;;;;16.19;55.09;101181.25;5018320;28;20056;-82
2023/05/24 06:51:16;;;;;;;11.65;3.50;;;;;;;16.04;53.36;101191.53;5055925;28;20068;-83
2023/05/24 06:53:43;;;;;;;8.82;3.05;;;;;;;16.27;55.68;101187.19;5034771;28;20049;-83
2023/05/24 06:56:10;;;;;;;10.60;4.00;;;;;;;16.59;56.42;101186.91;5032707;28;20040;-82
2023/05/24 06:58:36;;;;;;;7.07;3.17;;;;;;;16.80;56.65;101195.91;5048684;28;20056;-83
2023/05/24 07:01:03;;;;;;;8.50;3.03;;;;;;;17.01;53.40;101199.59;5026025;28;20105;-84
2023/05/24 07:03:31;;;;;;;7.30;2.85;;;;;;;17.16;53.51;101201.66;5050426;28;20474;-83
2023/05/24 07:05:58;;;;;;;11.98;3.80;;;;;;;17.08;51.37;101202.88;5043358;28;20045;-85
2023/05/24 07:08:24;;;;;;;10.18;3.00;;;;;;;16.63;54.22;101198.31;5020198;28;20075;-83
2023/05/24 07:10:52;;;;;;;7.38;2.70;;;;;;;15.97;53.41;101210.44;5048926;28;20116;-84
2023/05/24 07:13:19;;;;;;;6.88;3.03;;;;;;;15.80;56.53;101208.34;5014297;28;20061;-83
2023/05/24 07:15:46;;;;;;;7.07;3.00;;;;;;;15.75;57.74;101205.84;5037061;28;20738;-83
2023/05/24 07:18:13;;;;;;;8.10;3.10;;;;;;;15.57;58.52;101218.88;5016263;28;20042;-83
2023/05/24 07:20:40;;;;;;;10.73;3.08;;;;;;;15.16;58.43;101213.91;5037064;28;20041;-82
2023/05/24 07:23:07;;;;;;;9.40;3.50;;;;;;;14.84;59.90;101217.53;5045440;28;20056;-82
2023/05/24 07:25:34;;;;;;;8.38;3.13;;;;;;;14.39;60.27;101222.34;5048429;28;20505;-82
2023/05/24 07:28:01;;;;;;;7.03;3.05;;;;;;;14.44;63.21;101224.84;5031528;28;20537;-82
2023/05/24 07:30:28;;;;;;;7.40;3.13;;;;;;;14.32;64.04;101221.63;5032847;28;20075;-84
2023/05/24 07:32:58;;;;;;;8.13;2.97;;;;;;;14.36;63.16;101225.06;5024109;28;20526;-83
2023/05/24 07:35:27;;;;;;;10.55;3.47;;;;;;;14.33;63.39;101226.03;5018631;28;20109;-84
2023/05/24 07:37:54;;;;;;;6.30;2.92;;;;;;;14.32;63.88;101226.06;5017345;28;20413;-83
2023/05/24 07:40:21;;;;;;;8.02;3.55;;;;;;;14.16;64.00;101230.03;5042038;28;20132;-82
2023/05/24 07:42:48;;;;;;;9.35;3.67;;;;;;;14.14;66.55;101238.06;5006051;28;20045;-82
2023/05/24 07:45:15;;;;;;;18.35;4.70;;;;;;;14.00;67.35;101243.72;5028127;28;20065;-82
2023/05/24 07:47:42;;;;;;;8.65;3.28;;;;;;;13.96;67.91;101238.53;5034691;28;20034;-82
2023/05/24 07:50:10;;;;;;;8.52;3.03;;;;;;;13.53;67.71;101243.06;5014273;28;20072;-83
2023/05/24 07:52:37;;;;;;;10.73;3.50;;;;;;;13.64;68.43;101248.16;5012460;28;20573;-82
2023/05/24 07:55:05;;;;;;;9.60;2.80;;;;;;;13.71;67.39;101248.91;5012750;28;20087;-83
2023/05/24 07:57:32;;;;;;;11.45;4.40;;;;;;;13.59;69.38;101244.72;5015610;28;20149;-81
2023/05/24 08:00:05;;;;;;;7.20;3.35;;;;;;;13.57;69.36;101251.00;5019780;28;20033;-82
2023/05/24 08:02:33;;;;;;;6.28;2.95;;;;;;;13.61;69.85;101257.97;5045516;28;20514;-83
2023/05/24 08:05:03;;;;;;;9.05;3.13;;;;;;;13.72;70.89;101254.16;5052482;28;20418;-83
2023/05/24 08:07:30;;;;;;;7.35;3.30;;;;;;;13.76;68.41;101262.91;5020647;28;20091;-83
2023/05/24 08:09:57;;;;;;;6.25;3.03;;;;;;;13.82;68.64;101261.91;5036559;28;20083;-82
2023/05/24 08:12:24;;;;;;;9.55;3.92;;;;;;;13.87;68.86;101266.19;5025669;28;20064;-82
2023/05/24 08:14:51;;;;;;;8.52;3.55;;;;;;;13.90;69.98;101266.13;5041852;28;20405;-82
2023/05/24 08:17:18;;;;;;;7.22;3.45;;;;;;;13.99;69.80;101257.91;5021947;28;20041;-82
2023/05/24 08:19:45;;;;;;;11.73;4.63;;;;;;;14.06;70.59;101270.16;5032911;28;20040;-83
2023/05/24 08:22:11;;;;;;;8.93;3.45;;;;;;;13.96;66.92;101262.44;5023772;28;20493;-83
2023/05/24 08:24:38;;;;;;;20.33;5.40;;;;;;;14.11;68.38;101266.47;5025396;28;20077;-83
2023/05/24 08:27:06;;;;;;;19.52;4.93;;;;;;;14.21;67.38;101265.31;5029929;28;20128;-84
2023/05/24 08:29:33;;;;;;;12.18;4.32;;;;;;;14.37;68.69;101272.00;5034472;28;20409;-82
2023/05/24 08:32:00;;;;;;;6.03;3.88;;;;;;;14.53;67.73;101277.81;5032945;28;20047;-83
2023/05/24 08:34:27;;;;;;;8.43;3.50;;;;;;;14.51;66.87;101269.88;5030151;28;20537;-82
2023/05/24 08:36:54;;;;;;;8.88;3.83;;;;;;;13.91;62.64;101278.50;5017864;28;20409;-82
2023/05/24 08:39:20;;;;;;;6.07;3.70;;;;;;;14.12;64.69;101276.19;5024343;28;20064;-82
2023/05/24 08:41:47;;;;;;;6.78;2.70;;;;;;;14.34;63.84;101280.06;5019253;28;20049;-84
2023/05/24 08:44:40;;;;;;;6.88;2.85;;;;;;;14.72;63.07;101275.53;5033370;28;20086;-82
2023/05/24 08:47:08;;;;;;;7.20;2.75;;;;;;;14.97;64.32;101273.94;5013798;28;20051;-82
2023/05/24 08:49:37;;;;;;;10.32;3.00;;;;;;;15.12;60.09;101272.59;5026093;28;20045;-83
2023/05/24 08:52:06;;;;;;;7.15;3.05;;;;;;;15.10;60.02;101275.31;5007784;28;20095;-82
2023/05/24 08:54:36;;;;;;;5.50;2.53;;;;;;;15.30;62.18;101276.50;5014398;28;20135;-81
2023/05/24 08:57:03;;;;;;;63.97;11.05;;;;;;;15.50;62.63;101282.09;5025746;28;20072;-82
2023/05/24 08:59:30;;;;;;;15.30;7.22;;;;;;;15.69;63.62;101280.63;5031945;28;20051;-82
2023/05/24 09:01:58;;;;;;;16.25;13.68;;;;;;;15.87;62.34;101288.94;5005909;28;20049;-81
2023/05/24 09:04:26;;;;;;;7.32;3.65;;;;;;;16.09;61.36;101289.13;5045878;28;20129;-82
2023/05/24 09:06:54;;;;;;;9.55;6.47;;;;;;;16.49;59.55;101291.31;5030042;28;20045;-81
2023/05/24 09:09:21;;;;;;;11.18;4.32;;;;;;;16.51;58.60;101297.47;5006765;28;20033;-83
2023/05/24 09:11:49;;;;;;;8.75;4.40;;;;;;;16.53;56.58;101293.81;5023812;28;20497;-82
2023/05/24 09:14:15;;;;;;;9.52;3.90;;;;;;;16.61;57.82;101288.22;5042997;28;20102;-81
2023/05/24 09:16:43;;;;;;;6.00;2.80;;;;;;;16.61;55.72;101282.88;5010867;28;20041;-82
2023/05/24 09:19:10;;;;;;;9.70;3.28;;;;;;;16.49;56.09;101288.66;5002037;28;20041;-81
2023/05/24 09:21:37;;;;;;;5.72;3.47;;;;;;;16.65;57.49;101292.53;5032904;28;20044;-82
2023/05/24 09:24:07;;;;;;;6.13;3.85;;;;;;;16.68;57.29;101297.75;5013613;28;20045;-83
2023/05/24 09:26:35;;;;;;;7.18;3.15;;;;;;;16.59;58.24;101290.06;5022023;28;20037;-82
2023/05/24 09:29:06;;;;;;;7.43;3.40;;;;;;;15.95;55.64;101298.44;5031921;28;20055;-81
2023/05/24 09:31:33;;;;;;;13.45;3.70;;;;;;;15.94;56.60;101293.16;5021081;28;20438;-84
2023/05/24 09:34:00;;;;;;;7.88;2.80;;;;;;;16.06;58.69;101300.78;5015482;28;20077;-82
2023/05/24 09:36:31;;;;;;;7.88;3.60;;;;;;;15.98;57.62;101298.38;5028448;28;20096;-82
2023/05/24 09:39:06;;;;;;;5.78;3.10;;;;;;;15.94;58.11;101299.38;5027852;28;20136;-84
2023/05/24 09:41:33;;;;;;;6.68;3.20;;;;;;;15.77;59.48;101302.56;5014593;28;20048;-83
2023/05/24 09:44:00;;;;;;;8.13;3.20;;;;;;;15.85;60.85;101301.47;5016691;28;20519;-84
2023/05/24 09:46:28;;;;;;;10.45;3.97;;;;;;;15.76;60.65;101302.63;5017260;28;20414;-83
2023/05/24 09:48:59;;;;;;;11.45;3.95;;;;;;;15.71;60.25;101301.88;5033865;28;20402;-82
2023/05/24 09:51:25;;;;;;;8.00;3.90;;;;;;;15.61;62.05;101305.75;5043309;28;20040;-83
2023/05/24 09:53:56;;;;;;;9.52;3.63;;;;;;;15.65;60.53;101307.44;5011962;28;20394;-83
2023/05/24 09:56:23;;;;;;;6.38;3.53;;;;;;;15.58;60.95;101304.03;5029525;28;20086;-83
2023/05/24 09:58:50;;;;;;;7.15;3.08;;;;;;;15.53;61.96;101305.97;5015704;28;20045;-84
2023/05/24 10:01:17;;;;;;;9.95;3.40;;;;;;;15.51;62.70;101309.59;5029050;28;20437;-83
2023/05/24 10:03:55;;;;;;;7.47;3.53;;;;;;;14.83;65.06;101316.00;5052291;28;20047;-84
2023/05/24 10:06:22;;;;;;;7.32;3.40;;;;;;;15.15;65.00;101320.44;5015406;28;20101;-84
2023/05/24 10:08:50;;;;;;;13.00;4.97;;;;;;;15.20;65.90;101316.69;5025108;28;20449;-81
2023/05/24 10:11:17;;;;;;;9.15;4.07;;;;;;;15.40;64.72;101309.94;5023534;28;20483;-83
2023/05/24 10:13:44;;;;;;;8.73;4.18;;;;;;;15.48;63.40;101316.78;5035700;28;20041;-82
2023/05/24 10:16:11;;;;;;;8.60;4.45;;;;;;;15.47;63.00;101323.03;5046148;28;20044;-84
2023/05/24 10:18:38;;;;;;;10.85;4.32;;;;;;;15.62;64.26;101323.47;5034037;28;20150;-85
2023/05/24 10:21:07;;;;;;;10.90;4.68;;;;;;;15.72;62.39;101322.28;5028830;28;20049;-84
2023/05/24 10:23:37;;;;;;;7.53;3.63;;;;;;;15.83;61.93;101327.28;5014034;28;20037;-84
2023/05/24 10:26:13;;;;;;;9.45;4.47;;;;;;;15.14;60.38;101335.53;5033982;28;20512;-83
2023/05/24 10:28:47;;;;;;;8.05;3.50;;;;;;;15.46;63.91;101333.69;5043336;28;20049;-81
2023/05/24 10:31:17;;;;;;;10.90;4.35;;;;;;;15.70;64.00;101324.13;5028919;28;20044;-83
2023/05/24 10:33:47;;;;;;;6.60;3.90;;;;;;;15.63;60.43;101325.22;5003039;28;20046;-83
2023/05/24 10:36:14;;;;;;;9.27;3.80;;;;;;;15.32;63.16;101326.13;5005890;28;20479;-83
2023/05/24 10:38:42;;;;;;;7.70;3.67;;;;;;;15.54;61.78;101329.00;5028498;28;20485;-82
2023/05/24 10:41:11;;;;;;;9.07;3.88;;;;;;;15.65;63.82;101332.28;5029500;28;20136;-83
2023/05/24 10:43:39;;;;;;;12.07;3.90;;;;;;;15.75;62.93;101328.41;5015895;28;20045;-83
2023/05/24 10:46:07;;;;;;;7.85;3.70;;;;;;;15.87;61.99;101321.78;5000524;28;20045;-83
2023/05/24 10:48:39;;;;;;;8.57;3.05;;;;;;;16.06;62.58;101327.44;5016831;28;20042;-83
2023/05/24 10:51:38;;;;;;;10.68;4.35;;;;;;;16.32;61.03;101324.78;5007962;28;20051;-82
2023/05/24 10:54:12;;;;;;;7.95;3.78;;;;;;;16.30;61.23;101325.72;5033659;28;20504;-84
2023/05/24 10:56:47;;;;;;;10.65;4.10;;;;;;;16.48;60.38;101319.78;5031097;28;20575;-83
2023/05/24 10:59:36;;;;;;;7.20;3.25;;;;;;;16.49;59.31;101323.31;5024723;28;20052;-83
2023/05/24 11:02:15;;;;;;;7.88;3.15;;;;;;;16.26;58.00;101324.97;5030136;28;20048;-83
2023/05/24 11:04:45;;;;;;;7.22;3.97;;;;;;;16.17;61.98;101329.75;5011325;28;20059;-83
2023/05/24 11:07:14;;;;;;;5.32;2.97;;;;;;;16.09;61.18;101329.13;5011782;28;20116;-83
2023/05/24 11:09:45;;;;;;;11.30;3.60;;;;;;;16.02;58.64;101331.09;5055660;28;20037;-83
2023/05/24 11:12:16;;;;;;;9.85;3.80;;;;;;;16.03;60.17;101339.03;5016797;28;20567;-83
2023/05/24 11:14:50;;;;;;;8.38;3.42;;;;;;;15.41;60.94;101338.31;5003461;28;20042;-83
2023/05/24 11:17:20;;;;;;;11.25;3.70;;;;;;;15.55;63.12;101338.75;5016437;28;20057;-84
2023/05/24 11:19:49;;;;;;;9.15;3.35;;;;;;;15.75;62.89;101346.19;5003598;28;20444;-82
2023/05/24 11:22:16;;;;;;;7.60;3.70;;;;;;;15.77;61.27;101345.19;5013991;28;20120;-83
2023/05/24 11:24:43;;;;;;;7.18;3.80;;;;;;;15.89;63.43;101349.28;5024123;28;20038;-83
2023/05/24 11:27:11;;;;;;;10.65;3.65;;;;;;;15.67;60.07;101346.41;5043048;28;20040;-83